sensor_id;sensor_type;location;lat;lon;timestamp;P1;durP1;ratioP1;P2;durP2;ratioP2
38779;SDS011;29273;49.962;9.768;2023-02-23T00:01:48;3.55;;;3.10;;
38779;SDS011;29273;49.962;9.768;2023-02-23T00:04:14;4.57;;;3.55;;
38779;SDS011;29273;49.962;9.768;2023-02-23T00:06:39;4.25;;;3.60;;
38779;SDS011;29273;49.962;9.768;2023-02-23T00:09:06;5.05;;;3.72;;
38779;SDS011;29273;49.962;9.768;2023-02-23T00:11:38;4.95;;;3.47;;
38779;SDS011;29273;49.962;9.768;2023-02-23T00:14:04;5.53;;;3.67;;
38779;SDS011;29273;49.962;9.768;2023-02-23T00:16:32;4.55;;;3.42;;
38779;SDS011;29273;49.962;9.768;2023-02-23T00:18:58;4.35;;;3.35;;
38779;SDS011;29273;49.962;9.768;2023-02-23T00:21:30;4.18;;;3.38;;
38779;SDS011;29273;49.962;9.768;2023-02-23T00:24:06;4.55;;;3.40;;
38779;SDS011;29273;49.962;9.768;2023-02-23T00:26:33;3.60;;;3.05;;
38779;SDS011;29273;49.962;9.768;2023-02-23T00:29:01;3.90;;;3.22;;
38779;SDS011;29273;49.962;9.768;2023-02-23T00:31:28;4.88;;;3.60;;
38779;SDS011;29273;49.962;9.768;2023-02-23T00:33:58;4.90;;;3.50;;
38779;SDS011;29273;49.962;9.768;2023-02-23T00:36:25;4.00;;;3.50;;
38779;SDS011;29273;49.962;9.768;2023-02-23T00:38:53;4.32;;;3.63;;
38779;SDS011;29273;49.962;9.768;2023-02-23T00:41:21;4.47;;;3.50;;
38779;SDS011;29273;49.962;9.768;2023-02-23T00:43:49;5.47;;;3.80;;
38779;SDS011;29273;49.962;9.768;2023-02-23T00:46:15;4.53;;;3.30;;
38779;SDS011;29273;49.962;9.768;2023-02-23T00:48:44;5.20;;;4.05;;
38779;SDS011;29273;49.962;9.768;2023-02-23T00:51:10;3.95;;;3.40;;
38779;SDS011;29273;49.962;9.768;2023-02-23T00:53:38;7.40;;;3.45;;
38779;SDS011;29273;49.962;9.768;2023-02-23T00:56:06;4.90;;;3.42;;
38779;SDS011;29273;49.962;9.768;2023-02-23T00:58:35;3.95;;;3.45;;
38779;SDS011;29273;49.962;9.768;2023-02-23T01:01:04;5.55;;;3.55;;
38779;SDS011;29273;49.962;9.768;2023-02-23T01:03:31;4.40;;;3.35;;
38779;SDS011;29273;49.962;9.768;2023-02-23T01:06:00;5.60;;;3.63;;
38779;SDS011;29273;49.962;9.768;2023-02-23T01:08:30;4.95;;;3.22;;
38779;SDS011;29273;49.962;9.768;2023-02-23T01:11:04;4.07;;;3.15;;
38779;SDS011;29273;49.962;9.768;2023-02-23T01:13:34;4.65;;;3.55;;
38779;SDS011;29273;49.962;9.768;2023-02-23T01:16:11;4.15;;;3.30;;
38779;SDS011;29273;49.962;9.768;2023-02-23T01:18:39;4.43;;;3.45;;
38779;SDS011;29273;49.962;9.768;2023-02-23T01:23:41;4.50;;;3.47;;
38779;SDS011;29273;49.962;9.768;2023-02-23T01:26:13;4.53;;;3.22;;
38779;SDS011;29273;49.962;9.768;2023-02-23T01:28:40;6.20;;;3.47;;
38779;SDS011;29273;49.962;9.768;2023-02-23T01:31:08;4.43;;;3.38;;
38779;SDS011;29273;49.962;9.768;2023-02-23T01:33:35;5.93;;;3.40;;
38779;SDS011;29273;49.962;9.768;2023-02-23T01:36:00;6.90;;;3.78;;
38779;SDS011;29273;49.962;9.768;2023-02-23T01:38:26;4.07;;;3.22;;
38779;SDS011;29273;49.962;9.768;2023-02-23T01:40:52;5.43;;;3.63;;
38779;SDS011;29273;49.962;9.768;2023-02-23T01:43:19;4.10;;;3.28;;
38779;SDS011;29273;49.962;9.768;2023-02-23T01:45:56;4.07;;;3.33;;
38779;SDS011;29273;49.962;9.768;2023-02-23T01:48:25;4.90;;;3.53;;
38779;SDS011;29273;49.962;9.768;2023-02-23T01:54:01;3.50;;;3.10;;
38779;SDS011;29273;49.962;9.768;2023-02-23T01:56:33;4.00;;;3.20;;
38779;SDS011;29273;49.962;9.768;2023-02-23T01:59:07;4.32;;;3.35;;
38779;SDS011;29273;49.962;9.768;2023-02-23T02:01:36;5.47;;;3.33;;
38779;SDS011;29273;49.962;9.768;2023-02-23T02:04:06;4.53;;;3.47;;
38779;SDS011;29273;49.962;9.768;2023-02-23T02:06:33;3.95;;;3.20;;
38779;SDS011;29273;49.962;9.768;2023-02-23T02:09:02;4.88;;;3.30;;
38779;SDS011;29273;49.962;9.768;2023-02-23T02:11:32;4.90;;;3.38;;
38779;SDS011;29273;49.962;9.768;2023-02-23T02:14:20;4.50;;;3.38;;
38779;SDS011;29273;49.962;9.768;2023-02-23T02:35:09;3.55;;;2.78;;
38779;SDS011;29273;49.962;9.768;2023-02-23T02:37:52;3.95;;;2.85;;
38779;SDS011;29273;49.962;9.768;2023-02-23T02:45:43;4.07;;;2.97;;
38779;SDS011;29273;49.962;9.768;2023-02-23T02:48:15;5.03;;;3.28;;
38779;SDS011;29273;49.962;9.768;2023-02-23T02:50:52;2.90;;;2.60;;
38779;SDS011;29273;49.962;9.768;2023-02-23T02:53:25;4.20;;;3.28;;
38779;SDS011;29273;49.962;9.768;2023-02-23T02:55:58;4.00;;;3.08;;
38779;SDS011;29273;49.962;9.768;2023-02-23T02:58:31;3.55;;;2.78;;
38779;SDS011;29273;49.962;9.768;2023-02-23T03:01:04;4.07;;;3.10;;
38779;SDS011;29273;49.962;9.768;2023-02-23T03:03:50;3.72;;;3.03;;
38779;SDS011;29273;49.962;9.768;2023-02-23T03:06:43;3.50;;;2.92;;
38779;SDS011;29273;49.962;9.768;2023-02-23T03:09:48;3.95;;;3.00;;
38779;SDS011;29273;49.962;9.768;2023-02-23T03:12:53;3.33;;;2.60;;
38779;SDS011;29273;49.962;9.768;2023-02-23T03:15:59;3.20;;;2.58;;
38779;SDS011;29273;49.962;9.768;2023-02-23T03:21:55;3.20;;;2.50;;
38779;SDS011;29273;49.962;9.768;2023-02-23T03:24:49;3.67;;;2.45;;
38779;SDS011;29273;49.962;9.768;2023-02-23T03:27:55;4.22;;;2.58;;
38779;SDS011;29273;49.962;9.768;2023-02-23T03:30:50;3.22;;;2.50;;
38779;SDS011;29273;49.962;9.768;2023-02-23T03:36:46;3.90;;;2.75;;
38779;SDS011;29273;49.962;9.768;2023-02-23T03:39:42;4.00;;;2.72;;
38779;SDS011;29273;49.962;9.768;2023-02-23T03:42:34;2.92;;;2.63;;
38779;SDS011;29273;49.962;9.768;2023-02-23T03:45:21;3.78;;;2.80;;
38779;SDS011;29273;49.962;9.768;2023-02-23T03:48:10;5.20;;;2.70;;
38779;SDS011;29273;49.962;9.768;2023-02-23T03:50:59;2.92;;;2.63;;
38779;SDS011;29273;49.962;9.768;2023-02-23T03:53:49;3.30;;;2.55;;
38779;SDS011;29273;49.962;9.768;2023-02-23T03:56:38;4.53;;;2.88;;
38779;SDS011;29273;49.962;9.768;2023-02-23T03:59:29;3.13;;;2.42;;
38779;SDS011;29273;49.962;9.768;2023-02-23T04:02:18;3.60;;;2.67;;
38779;SDS011;29273;49.962;9.768;2023-02-23T04:05:05;3.90;;;3.05;;
38779;SDS011;29273;49.962;9.768;2023-02-23T04:07:53;2.72;;;2.42;;
38779;SDS011;29273;49.962;9.768;2023-02-23T04:10:40;4.32;;;2.58;;
38779;SDS011;29273;49.962;9.768;2023-02-23T04:13:35;3.22;;;2.60;;
38779;SDS011;29273;49.962;9.768;2023-02-23T04:16:05;3.72;;;3.00;;
38779;SDS011;29273;49.962;9.768;2023-02-23T04:18:33;4.45;;;3.00;;
38779;SDS011;29273;49.962;9.768;2023-02-23T04:21:00;3.30;;;2.92;;
38779;SDS011;29273;49.962;9.768;2023-02-23T04:23:26;3.47;;;3.03;;
38779;SDS011;29273;49.962;9.768;2023-02-23T04:25:52;3.10;;;2.60;;
38779;SDS011;29273;49.962;9.768;2023-02-23T04:28:22;3.35;;;2.67;;
38779;SDS011;29273;49.962;9.768;2023-02-23T04:30:49;2.97;;;2.65;;
38779;SDS011;29273;49.962;9.768;2023-02-23T04:33:17;4.22;;;3.03;;
38779;SDS011;29273;49.962;9.768;2023-02-23T04:35:42;4.05;;;3.10;;
38779;SDS011;29273;49.962;9.768;2023-02-23T04:38:08;3.72;;;2.63;;
38779;SDS011;29273;49.962;9.768;2023-02-23T04:40:34;3.10;;;2.70;;
38779;SDS011;29273;49.962;9.768;2023-02-23T04:43:00;3.72;;;2.83;;
38779;SDS011;29273;49.962;9.768;2023-02-23T04:45:25;3.63;;;3.00;;
38779;SDS011;29273;49.962;9.768;2023-02-23T04:47:51;3.10;;;2.80;;
38779;SDS011;29273;49.962;9.768;2023-02-23T04:50:17;4.00;;;3.15;;
38779;SDS011;29273;49.962;9.768;2023-02-23T04:52:44;3.05;;;2.67;;
38779;SDS011;29273;49.962;9.768;2023-02-23T04:55:19;3.50;;;2.80;;
38779;SDS011;29273;49.962;9.768;2023-02-23T04:57:47;3.20;;;2.72;;
38779;SDS011;29273;49.962;9.768;2023-02-23T05:00:12;3.28;;;2.95;;
38779;SDS011;29273;49.962;9.768;2023-02-23T05:02:38;3.70;;;2.40;;
38779;SDS011;29273;49.962;9.768;2023-02-23T05:05:04;3.58;;;2.75;;
38779;SDS011;29273;49.962;9.768;2023-02-23T05:07:31;3.88;;;3.10;;
38779;SDS011;29273;49.962;9.768;2023-02-23T05:09:58;3.45;;;2.63;;
38779;SDS011;29273;49.962;9.768;2023-02-23T05:12:23;3.80;;;2.90;;
38779;SDS011;29273;49.962;9.768;2023-02-23T05:14:49;3.58;;;2.97;;
38779;SDS011;29273;49.962;9.768;2023-02-23T05:17:14;3.15;;;2.75;;
38779;SDS011;29273;49.962;9.768;2023-02-23T05:19:39;3.65;;;2.78;;
38779;SDS011;29273;49.962;9.768;2023-02-23T05:22:05;3.97;;;2.92;;
38779;SDS011;29273;49.962;9.768;2023-02-23T05:24:31;3.78;;;3.13;;
38779;SDS011;29273;49.962;9.768;2023-02-23T05:26:56;3.45;;;2.72;;
38779;SDS011;29273;49.962;9.768;2023-02-23T05:29:23;4.65;;;3.08;;
38779;SDS011;29273;49.962;9.768;2023-02-23T05:31:49;4.28;;;2.88;;
38779;SDS011;29273;49.962;9.768;2023-02-23T05:34:14;3.08;;;2.78;;
38779;SDS011;29273;49.962;9.768;2023-02-23T05:36:41;3.90;;;2.85;;
38779;SDS011;29273;49.962;9.768;2023-02-23T05:39:07;3.08;;;2.45;;
38779;SDS011;29273;49.962;9.768;2023-02-23T05:41:33;3.55;;;2.72;;
38779;SDS011;29273;49.962;9.768;2023-02-23T05:43:58;4.78;;;2.83;;
38779;SDS011;29273;49.962;9.768;2023-02-23T05:46:24;4.38;;;3.13;;
38779;SDS011;29273;49.962;9.768;2023-02-23T05:48:57;3.72;;;2.80;;
38779;SDS011;29273;49.962;9.768;2023-02-23T05:51:25;4.22;;;3.25;;
38779;SDS011;29273;49.962;9.768;2023-02-23T05:53:52;4.68;;;3.45;;
38779;SDS011;29273;49.962;9.768;2023-02-23T05:56:18;4.10;;;3.08;;
38779;SDS011;29273;49.962;9.768;2023-02-23T05:58:50;4.18;;;3.10;;
38779;SDS011;29273;49.962;9.768;2023-02-23T06:01:17;3.72;;;2.88;;
38779;SDS011;29273;49.962;9.768;2023-02-23T06:03:44;3.30;;;2.90;;
38779;SDS011;29273;49.962;9.768;2023-02-23T06:06:10;4.20;;;3.13;;
38779;SDS011;29273;49.962;9.768;2023-02-23T06:08:36;3.45;;;3.05;;
38779;SDS011;29273;49.962;9.768;2023-02-23T06:11:02;3.33;;;2.60;;
38779;SDS011;29273;49.962;9.768;2023-02-23T06:13:28;3.67;;;3.15;;
38779;SDS011;29273;49.962;9.768;2023-02-23T06:15:56;4.45;;;3.30;;
38779;SDS011;29273;49.962;9.768;2023-02-23T06:18:23;3.35;;;3.05;;
38779;SDS011;29273;49.962;9.768;2023-02-23T06:20:49;4.80;;;2.92;;
38779;SDS011;29273;49.962;9.768;2023-02-23T06:23:15;4.78;;;3.50;;
38779;SDS011;29273;49.962;9.768;2023-02-23T06:25:41;4.00;;;3.47;;
38779;SDS011;29273;49.962;9.768;2023-02-23T06:28:08;3.55;;;2.88;;
38779;SDS011;29273;49.962;9.768;2023-02-23T06:30:35;3.40;;;2.95;;
38779;SDS011;29273;49.962;9.768;2023-02-23T06:33:01;4.30;;;3.22;;
38779;SDS011;29273;49.962;9.768;2023-02-23T06:35:27;3.20;;;2.90;;
38779;SDS011;29273;49.962;9.768;2023-02-23T06:37:52;4.13;;;3.20;;
38779;SDS011;29273;49.962;9.768;2023-02-23T06:40:18;4.50;;;3.55;;
38779;SDS011;29273;49.962;9.768;2023-02-23T06:42:45;3.63;;;3.10;;
38779;SDS011;29273;49.962;9.768;2023-02-23T06:45:11;4.40;;;2.75;;
38779;SDS011;29273;49.962;9.768;2023-02-23T06:47:37;5.20;;;3.72;;
38779;SDS011;29273;49.962;9.768;2023-02-23T06:50:04;3.60;;;2.80;;
38779;SDS011;29273;49.962;9.768;2023-02-23T06:52:31;4.20;;;3.30;;
38779;SDS011;29273;49.962;9.768;2023-02-23T06:54:57;3.88;;;3.00;;
38779;SDS011;29273;49.962;9.768;2023-02-23T06:57:23;4.82;;;3.33;;
38779;SDS011;29273;49.962;9.768;2023-02-23T06:59:48;4.07;;;3.38;;
38779;SDS011;29273;49.962;9.768;2023-02-23T07:02:14;4.65;;;3.45;;
38779;SDS011;29273;49.962;9.768;2023-02-23T07:04:39;4.38;;;3.17;;
38779;SDS011;29273;49.962;9.768;2023-02-23T07:07:05;6.05;;;3.60;;
38779;SDS011;29273;49.962;9.768;2023-02-23T07:09:30;4.78;;;3.53;;
38779;SDS011;29273;49.962;9.768;2023-02-23T07:11:56;3.85;;;3.30;;
38779;SDS011;29273;49.962;9.768;2023-02-23T07:14:22;3.88;;;3.40;;
38779;SDS011;29273;49.962;9.768;2023-02-23T07:16:47;5.13;;;3.40;;
38779;SDS011;29273;49.962;9.768;2023-02-23T07:19:13;4.00;;;3.33;;
38779;SDS011;29273;49.962;9.768;2023-02-23T07:21:38;4.13;;;3.35;;
38779;SDS011;29273;49.962;9.768;2023-02-23T07:24:04;4.00;;;3.15;;
38779;SDS011;29273;49.962;9.768;2023-02-23T07:26:33;5.40;;;3.72;;
38779;SDS011;29273;49.962;9.768;2023-02-23T07:28:59;4.88;;;3.55;;
38779;SDS011;29273;49.962;9.768;2023-02-23T07:31:25;4.57;;;3.60;;
38779;SDS011;29273;49.962;9.768;2023-02-23T07:33:51;6.32;;;3.97;;
38779;SDS011;29273;49.962;9.768;2023-02-23T07:36:19;5.15;;;3.67;;
38779;SDS011;29273;49.962;9.768;2023-02-23T07:38:45;4.97;;;3.80;;
38779;SDS011;29273;49.962;9.768;2023-02-23T07:41:10;5.15;;;3.72;;
38779;SDS011;29273;49.962;9.768;2023-02-23T07:43:36;4.70;;;3.63;;
38779;SDS011;29273;49.962;9.768;2023-02-23T07:46:01;3.88;;;3.15;;
38779;SDS011;29273;49.962;9.768;2023-02-23T07:48:27;4.45;;;3.50;;
38779;SDS011;29273;49.962;9.768;2023-02-23T07:50:52;3.70;;;3.13;;
38779;SDS011;29273;49.962;9.768;2023-02-23T07:53:18;4.63;;;3.90;;
38779;SDS011;29273;49.962;9.768;2023-02-23T07:55:43;3.33;;;3.03;;
38779;SDS011;29273;49.962;9.768;2023-02-23T07:58:09;3.75;;;3.35;;
38779;SDS011;29273;49.962;9.768;2023-02-23T08:00:37;5.93;;;3.90;;
38779;SDS011;29273;49.962;9.768;2023-02-23T08:03:04;4.30;;;3.53;;
38779;SDS011;29273;49.962;9.768;2023-02-23T08:05:30;6.07;;;3.65;;
38779;SDS011;29273;49.962;9.768;2023-02-23T08:07:56;4.25;;;3.42;;
38779;SDS011;29273;49.962;9.768;2023-02-23T08:10:22;3.78;;;3.38;;
38779;SDS011;29273;49.962;9.768;2023-02-23T08:12:48;5.22;;;4.00;;
38779;SDS011;29273;49.962;9.768;2023-02-23T08:15:13;3.97;;;3.47;;
38779;SDS011;29273;49.962;9.768;2023-02-23T08:17:39;4.20;;;3.35;;
38779;SDS011;29273;49.962;9.768;2023-02-23T08:20:05;5.30;;;3.60;;
38779;SDS011;29273;49.962;9.768;2023-02-23T08:22:32;4.13;;;3.50;;
38779;SDS011;29273;49.962;9.768;2023-02-23T08:24:57;5.60;;;4.20;;
38779;SDS011;29273;49.962;9.768;2023-02-23T08:27:24;5.25;;;3.40;;
38779;SDS011;29273;49.962;9.768;2023-02-23T08:29:49;5.13;;;3.60;;
38779;SDS011;29273;49.962;9.768;2023-02-23T08:32:17;5.47;;;3.75;;
38779;SDS011;29273;49.962;9.768;2023-02-23T08:34:43;4.22;;;3.47;;
38779;SDS011;29273;49.962;9.768;2023-02-23T08:37:09;4.80;;;3.55;;
38779;SDS011;29273;49.962;9.768;2023-02-23T08:39:35;4.78;;;3.38;;
38779;SDS011;29273;49.962;9.768;2023-02-23T08:42:01;4.30;;;3.60;;
38779;SDS011;29273;49.962;9.768;2023-02-23T08:44:27;5.55;;;4.07;;
38779;SDS011;29273;49.962;9.768;2023-02-23T08:46:52;4.45;;;3.67;;
38779;SDS011;29273;49.962;9.768;2023-02-23T08:49:19;5.65;;;4.18;;
38779;SDS011;29273;49.962;9.768;2023-02-23T08:51:45;5.13;;;4.05;;
38779;SDS011;29273;49.962;9.768;2023-02-23T08:54:11;5.32;;;4.40;;
38779;SDS011;29273;49.962;9.768;2023-02-23T08:56:43;6.47;;;4.65;;
38779;SDS011;29273;49.962;9.768;2023-02-23T08:59:09;6.03;;;4.78;;
38779;SDS011;29273;49.962;9.768;2023-02-23T09:01:36;5.72;;;4.30;;
38779;SDS011;29273;49.962;9.768;2023-02-23T09:04:02;5.20;;;4.30;;
38779;SDS011;29273;49.962;9.768;2023-02-23T09:06:28;5.90;;;4.22;;
38779;SDS011;29273;49.962;9.768;2023-02-23T09:08:54;5.32;;;4.43;;
38779;SDS011;29273;49.962;9.768;2023-02-23T09:11:21;5.93;;;4.80;;
38779;SDS011;29273;49.962;9.768;2023-02-23T09:13:47;5.32;;;4.25;;
38779;SDS011;29273;49.962;9.768;2023-02-23T09:16:12;6.55;;;4.45;;
38779;SDS011;29273;49.962;9.768;2023-02-23T09:18:38;9.10;;;4.88;;
38779;SDS011;29273;49.962;9.768;2023-02-23T09:21:05;6.18;;;5.00;;
38779;SDS011;29273;49.962;9.768;2023-02-23T09:23:35;6.50;;;4.45;;
38779;SDS011;29273;49.962;9.768;2023-02-23T09:26:02;5.95;;;4.65;;
38779;SDS011;29273;49.962;9.768;2023-02-23T09:28:29;6.50;;;4.38;;
38779;SDS011;29273;49.962;9.768;2023-02-23T09:30:55;5.13;;;4.20;;
38779;SDS011;29273;49.962;9.768;2023-02-23T09:33:20;6.25;;;4.82;;
38779;SDS011;29273;49.962;9.768;2023-02-23T09:35:46;5.22;;;4.68;;
38779;SDS011;29273;49.962;9.768;2023-02-23T09:38:11;6.07;;;5.00;;
38779;SDS011;29273;49.962;9.768;2023-02-23T09:40:44;6.70;;;5.25;;
38779;SDS011;29273;49.962;9.768;2023-02-23T09:43:46;7.10;;;5.13;;
38779;SDS011;29273;49.962;9.768;2023-02-23T09:46:21;7.28;;;5.50;;
38779;SDS011;29273;49.962;9.768;2023-02-23T09:48:48;7.25;;;5.68;;
38779;SDS011;29273;49.962;9.768;2023-02-23T09:51:17;6.57;;;5.53;;
38779;SDS011;29273;49.962;9.768;2023-02-23T09:53:55;6.90;;;5.55;;
38779;SDS011;29273;49.962;9.768;2023-02-23T09:56:42;6.53;;;5.47;;
38779;SDS011;29273;49.962;9.768;2023-02-23T09:59:10;9.65;;;5.97;;
38779;SDS011;29273;49.962;9.768;2023-02-23T10:07:20;7.57;;;5.90;;
38779;SDS011;29273;49.962;9.768;2023-02-23T10:12:56;6.22;;;5.63;;
38779;SDS011;29273;49.962;9.768;2023-02-23T10:21:01;7.68;;;6.28;;
38779;SDS011;29273;49.962;9.768;2023-02-23T10:23:33;8.95;;;6.93;;
38779;SDS011;29273;49.962;9.768;2023-02-23T10:26:21;8.13;;;6.53;;
38779;SDS011;29273;49.962;9.768;2023-02-23T10:28:49;9.38;;;7.05;;
38779;SDS011;29273;49.962;9.768;2023-02-23T10:34:09;10.05;;;7.20;;
38779;SDS011;29273;49.962;9.768;2023-02-23T10:39:26;8.82;;;6.95;;
38779;SDS011;29273;49.962;9.768;2023-02-23T10:41:53;10.82;;;7.20;;
38779;SDS011;29273;49.962;9.768;2023-02-23T10:44:20;8.85;;;7.07;;
38779;SDS011;29273;49.962;9.768;2023-02-23T10:46:53;7.97;;;6.78;;
38779;SDS011;29273;49.962;9.768;2023-02-23T10:49:28;8.57;;;6.90;;
38779;SDS011;29273;49.962;9.768;2023-02-23T10:52:03;8.18;;;6.75;;
38779;SDS011;29273;49.962;9.768;2023-02-23T10:54:41;8.65;;;6.68;;
38779;SDS011;29273;49.962;9.768;2023-02-23T11:02:51;9.35;;;7.18;;
38779;SDS011;29273;49.962;9.768;2023-02-23T11:10:55;9.75;;;7.05;;
38779;SDS011;29273;49.962;9.768;2023-02-23T11:13:33;9.40;;;7.45;;
38779;SDS011;29273;49.962;9.768;2023-02-23T11:16:09;11.27;;;8.18;;
38779;SDS011;29273;49.962;9.768;2023-02-23T11:18:47;10.95;;;8.65;;
38779;SDS011;29273;49.962;9.768;2023-02-23T11:21:26;10.13;;;7.45;;
38779;SDS011;29273;49.962;9.768;2023-02-23T11:24:05;11.60;;;8.82;;
38779;SDS011;29273;49.962;9.768;2023-02-23T11:26:42;10.23;;;8.07;;
38779;SDS011;29273;49.962;9.768;2023-02-23T11:29:53;10.63;;;8.45;;
38779;SDS011;29273;49.962;9.768;2023-02-23T11:32:02;10.13;;;7.60;;
38779;SDS011;29273;49.962;9.768;2023-02-23T11:34:33;11.13;;;7.90;;
38779;SDS011;29273;49.962;9.768;2023-02-23T11:42:20;9.73;;;7.93;;
38779;SDS011;29273;49.962;9.768;2023-02-23T11:45:06;11.10;;;8.30;;
38779;SDS011;29273;49.962;9.768;2023-02-23T11:47:40;10.15;;;7.85;;
38779;SDS011;29273;49.962;9.768;2023-02-23T11:53:00;9.30;;;7.03;;
38779;SDS011;29273;49.962;9.768;2023-02-23T11:55:29;9.10;;;7.10;;
38779;SDS011;29273;49.962;9.768;2023-02-23T12:01:11;10.00;;;6.75;;
38779;SDS011;29273;49.962;9.768;2023-02-23T12:03:45;7.43;;;6.25;;
38779;SDS011;29273;49.962;9.768;2023-02-23T12:06:30;7.63;;;6.05;;
38779;SDS011;29273;49.962;9.768;2023-02-23T12:11:58;6.80;;;5.38;;
38779;SDS011;29273;49.962;9.768;2023-02-23T12:14:36;7.18;;;6.15;;
38779;SDS011;29273;49.962;9.768;2023-02-23T12:17:25;7.65;;;5.90;;
38779;SDS011;29273;49.962;9.768;2023-02-23T12:19:56;7.22;;;6.05;;
38779;SDS011;29273;49.962;9.768;2023-02-23T12:22:34;9.80;;;7.55;;
38779;SDS011;29273;49.962;9.768;2023-02-23T12:25:19;10.52;;;7.57;;
38779;SDS011;29273;49.962;9.768;2023-02-23T12:27:56;11.25;;;8.15;;
38779;SDS011;29273;49.962;9.768;2023-02-23T12:33:54;9.23;;;7.95;;
38779;SDS011;29273;49.962;9.768;2023-02-23T12:36:10;10.48;;;8.15;;
38779;SDS011;29273;49.962;9.768;2023-02-23T12:38:51;9.50;;;7.45;;
38779;SDS011;29273;49.962;9.768;2023-02-23T12:44:09;9.60;;;7.60;;
38779;SDS011;29273;49.962;9.768;2023-02-23T12:46:44;8.68;;;7.22;;
38779;SDS011;29273;49.962;9.768;2023-02-23T12:54:26;6.47;;;5.30;;
38779;SDS011;29273;49.962;9.768;2023-02-23T12:56:54;8.07;;;6.13;;
38779;SDS011;29273;49.962;9.768;2023-02-23T12:59:42;7.15;;;5.55;;
38779;SDS011;29273;49.962;9.768;2023-02-23T13:17:15;5.50;;;4.22;;
38779;SDS011;29273;49.962;9.768;2023-02-23T13:19:48;4.60;;;4.07;;
38779;SDS011;29273;49.962;9.768;2023-02-23T13:27:46;4.40;;;3.60;;
38779;SDS011;29273;49.962;9.768;2023-02-23T13:30:17;5.38;;;4.15;;
38779;SDS011;29273;49.962;9.768;2023-02-23T13:32:45;6.82;;;4.43;;
38779;SDS011;29273;49.962;9.768;2023-02-23T13:35:15;5.82;;;4.75;;
38779;SDS011;29273;49.962;9.768;2023-02-23T13:37:49;5.05;;;4.38;;
38779;SDS011;29273;49.962;9.768;2023-02-23T13:40:30;5.88;;;4.07;;
38779;SDS011;29273;49.962;9.768;2023-02-23T13:43:20;5.30;;;4.00;;
38779;SDS011;29273;49.962;9.768;2023-02-23T13:45:55;4.60;;;4.03;;
38779;SDS011;29273;49.962;9.768;2023-02-23T13:51:08;4.65;;;3.65;;
38779;SDS011;29273;49.962;9.768;2023-02-23T13:53:42;5.22;;;4.03;;
38779;SDS011;29273;49.962;9.768;2023-02-23T13:56:15;4.78;;;4.10;;
38779;SDS011;29273;49.962;9.768;2023-02-23T13:58:53;4.60;;;3.90;;
38779;SDS011;29273;49.962;9.768;2023-02-23T14:01:28;5.28;;;3.47;;
38779;SDS011;29273;49.962;9.768;2023-02-23T14:04:00;5.15;;;3.85;;
38779;SDS011;29273;49.962;9.768;2023-02-23T14:06:29;4.97;;;3.90;;
38779;SDS011;29273;49.962;9.768;2023-02-23T14:08:58;6.30;;;4.30;;
38779;SDS011;29273;49.962;9.768;2023-02-23T14:14:08;5.53;;;4.03;;
38779;SDS011;29273;49.962;9.768;2023-02-23T14:16:37;5.90;;;4.35;;
38779;SDS011;29273;49.962;9.768;2023-02-23T14:21:32;5.35;;;4.22;;
38779;SDS011;29273;49.962;9.768;2023-02-23T14:29:27;5.35;;;3.60;;
38779;SDS011;29273;49.962;9.768;2023-02-23T14:40:00;3.92;;;3.45;;
38779;SDS011;29273;49.962;9.768;2023-02-23T14:42:38;5.40;;;4.18;;
38779;SDS011;29273;49.962;9.768;2023-02-23T14:45:11;3.95;;;3.50;;
38779;SDS011;29273;49.962;9.768;2023-02-23T14:47:41;4.93;;;3.75;;
38779;SDS011;29273;49.962;9.768;2023-02-23T14:50:12;5.07;;;4.00;;
38779;SDS011;29273;49.962;9.768;2023-02-23T14:52:46;5.35;;;4.20;;
38779;SDS011;29273;49.962;9.768;2023-02-23T14:55:23;5.32;;;4.22;;
38779;SDS011;29273;49.962;9.768;2023-02-23T14:57:50;5.00;;;3.83;;
38779;SDS011;29273;49.962;9.768;2023-02-23T15:05:35;4.72;;;3.67;;
38779;SDS011;29273;49.962;9.768;2023-02-23T15:08:08;5.90;;;4.28;;
38779;SDS011;29273;49.962;9.768;2023-02-23T15:10:40;5.00;;;4.20;;
38779;SDS011;29273;49.962;9.768;2023-02-23T15:13:08;4.53;;;3.80;;
38779;SDS011;29273;49.962;9.768;2023-02-23T15:15:36;5.55;;;4.35;;
38779;SDS011;29273;49.962;9.768;2023-02-23T15:21:50;4.72;;;3.70;;
38779;SDS011;29273;49.962;9.768;2023-02-23T15:24:20;4.70;;;3.75;;
38779;SDS011;29273;49.962;9.768;2023-02-23T15:26:51;4.50;;;3.75;;
38779;SDS011;29273;49.962;9.768;2023-02-23T15:29:19;4.28;;;3.70;;
38779;SDS011;29273;49.962;9.768;2023-02-23T15:31:47;5.68;;;4.82;;
38779;SDS011;29273;49.962;9.768;2023-02-23T15:34:25;4.90;;;4.38;;
38779;SDS011;29273;49.962;9.768;2023-02-23T15:37:02;4.28;;;3.88;;
38779;SDS011;29273;49.962;9.768;2023-02-23T15:42:09;4.65;;;4.05;;
38779;SDS011;29273;49.962;9.768;2023-02-23T15:44:39;4.60;;;3.70;;
38779;SDS011;29273;49.962;9.768;2023-02-23T15:47:08;6.20;;;4.50;;
38779;SDS011;29273;49.962;9.768;2023-02-23T15:49:43;4.68;;;3.83;;
38779;SDS011;29273;49.962;9.768;2023-02-23T15:52:12;5.88;;;4.30;;
38779;SDS011;29273;49.962;9.768;2023-02-23T15:57:16;5.63;;;4.35;;
38779;SDS011;29273;49.962;9.768;2023-02-23T15:59:44;5.25;;;4.40;;
38779;SDS011;29273;49.962;9.768;2023-02-23T16:02:13;4.53;;;3.63;;
38779;SDS011;29273;49.962;9.768;2023-02-23T16:04:44;4.45;;;4.00;;
38779;SDS011;29273;49.962;9.768;2023-02-23T16:09:51;5.78;;;4.30;;
38779;SDS011;29273;49.962;9.768;2023-02-23T16:12:39;4.50;;;4.07;;
38779;SDS011;29273;49.962;9.768;2023-02-23T16:15:05;4.57;;;3.90;;
38779;SDS011;29273;49.962;9.768;2023-02-23T16:17:46;5.60;;;4.18;;
38779;SDS011;29273;49.962;9.768;2023-02-23T16:20:19;5.30;;;4.75;;
38779;SDS011;29273;49.962;9.768;2023-02-23T16:23:51;4.53;;;4.05;;
38779;SDS011;29273;49.962;9.768;2023-02-23T16:26:05;4.45;;;3.75;;
38779;SDS011;29273;49.962;9.768;2023-02-23T16:28:33;4.85;;;3.80;;
38779;SDS011;29273;49.962;9.768;2023-02-23T16:31:06;5.85;;;3.92;;
38779;SDS011;29273;49.962;9.768;2023-02-23T16:33:40;5.68;;;4.10;;
38779;SDS011;29273;49.962;9.768;2023-02-23T16:38:39;4.60;;;4.05;;
38779;SDS011;29273;49.962;9.768;2023-02-23T16:41:19;6.10;;;3.92;;
38779;SDS011;29273;49.962;9.768;2023-02-23T16:43:49;5.05;;;3.92;;
38779;SDS011;29273;49.962;9.768;2023-02-23T16:46:17;6.25;;;4.90;;
38779;SDS011;29273;49.962;9.768;2023-02-23T16:48:43;6.10;;;4.45;;
38779;SDS011;29273;49.962;9.768;2023-02-23T16:51:16;5.47;;;4.25;;
38779;SDS011;29273;49.962;9.768;2023-02-23T16:53:43;6.22;;;4.68;;
38779;SDS011;29273;49.962;9.768;2023-02-23T16:56:14;6.55;;;4.72;;
38779;SDS011;29273;49.962;9.768;2023-02-23T16:58:45;5.25;;;4.32;;
38779;SDS011;29273;49.962;9.768;2023-02-23T17:01:12;5.38;;;4.47;;
38779;SDS011;29273;49.962;9.768;2023-02-23T17:03:40;5.88;;;4.80;;
38779;SDS011;29273;49.962;9.768;2023-02-23T17:06:06;7.05;;;4.72;;
38779;SDS011;29273;49.962;9.768;2023-02-23T17:08:32;5.63;;;4.60;;
38779;SDS011;29273;49.962;9.768;2023-02-23T17:11:02;5.55;;;4.95;;
38779;SDS011;29273;49.962;9.768;2023-02-23T17:13:29;5.63;;;5.03;;
38779;SDS011;29273;49.962;9.768;2023-02-23T17:15:57;6.13;;;5.10;;
38779;SDS011;29273;49.962;9.768;2023-02-23T17:18:28;6.25;;;5.07;;
38779;SDS011;29273;49.962;9.768;2023-02-23T17:20:57;6.35;;;4.78;;
38779;SDS011;29273;49.962;9.768;2023-02-23T17:23:25;4.63;;;3.80;;
38779;SDS011;29273;49.962;9.768;2023-02-23T17:26:03;5.53;;;4.53;;
38779;SDS011;29273;49.962;9.768;2023-02-23T17:28:32;6.28;;;4.72;;
38779;SDS011;29273;49.962;9.768;2023-02-23T17:30:58;6.63;;;5.05;;
38779;SDS011;29273;49.962;9.768;2023-02-23T17:33:24;5.40;;;4.78;;
38779;SDS011;29273;49.962;9.768;2023-02-23T17:35:52;5.38;;;4.72;;
38779;SDS011;29273;49.962;9.768;2023-02-23T17:38:18;5.90;;;4.72;;
38779;SDS011;29273;49.962;9.768;2023-02-23T17:40:46;6.80;;;4.68;;
38779;SDS011;29273;49.962;9.768;2023-02-23T17:43:11;6.60;;;4.82;;
38779;SDS011;29273;49.962;9.768;2023-02-23T17:45:38;4.93;;;4.43;;